sensor_id;sensor_type;location;lat;lon;timestamp;P1;durP1;ratioP1;P2;durP2;ratioP2
24739;SDS011;45234;48.148;17.128;2023-04-25T00:01:16;3.22;;;2.55;;
24739;SDS011;45234;48.148;17.128;2023-04-25T00:03:43;6.32;;;2.33;;
24739;SDS011;45234;48.148;17.128;2023-04-25T00:06:11;5.70;;;2.53;;
24739;SDS011;45234;48.148;17.128;2023-04-25T00:08:39;3.25;;;2.67;;
24739;SDS011;45234;48.148;17.128;2023-04-25T00:11:06;3.83;;;2.58;;
24739;SDS011;45234;48.148;17.128;2023-04-25T00:13:33;2.72;;;1.83;;
24739;SDS011;45234;48.148;17.128;2023-04-25T00:16:00;5.05;;;2.30;;
24739;SDS011;45234;48.148;17.128;2023-04-25T00:18:28;2.90;;;2.25;;
24739;SDS011;45234;48.148;17.128;2023-04-25T00:20:55;3.60;;;2.47;;
24739;SDS011;45234;48.148;17.128;2023-04-25T00:23:23;2.70;;;2.40;;
24739;SDS011;45234;48.148;17.128;2023-04-25T00:25:50;2.75;;;1.85;;
24739;SDS011;45234;48.148;17.128;2023-04-25T00:28:17;3.80;;;2.40;;
24739;SDS011;45234;48.148;17.128;2023-04-25T00:30:44;3.90;;;2.50;;
24739;SDS011;45234;48.148;17.128;2023-04-25T00:33:11;3.85;;;2.22;;
24739;SDS011;45234;48.148;17.128;2023-04-25T00:35:38;2.47;;;2.00;;
24739;SDS011;45234;48.148;17.128;2023-04-25T00:38:05;2.65;;;2.13;;
24739;SDS011;45234;48.148;17.128;2023-04-25T00:40:34;5.10;;;2.40;;
24739;SDS011;45234;48.148;17.128;2023-04-25T00:43:01;2.55;;;2.00;;
24739;SDS011;45234;48.148;17.128;2023-04-25T00:45:29;3.53;;;1.80;;
24739;SDS011;45234;48.148;17.128;2023-04-25T00:47:57;3.85;;;2.00;;
24739;SDS011;45234;48.148;17.128;2023-04-25T00:50:24;2.67;;;1.77;;
24739;SDS011;45234;48.148;17.128;2023-04-25T00:52:51;3.55;;;2.03;;
24739;SDS011;45234;48.148;17.128;2023-04-25T00:55:19;2.22;;;2.00;;
24739;SDS011;45234;48.148;17.128;2023-04-25T00:57:47;2.67;;;1.98;;
24739;SDS011;45234;48.148;17.128;2023-04-25T01:00:14;2.40;;;2.20;;
24739;SDS011;45234;48.148;17.128;2023-04-25T01:02:42;5.18;;;1.88;;
24739;SDS011;45234;48.148;17.128;2023-04-25T01:05:10;2.63;;;2.25;;
24739;SDS011;45234;48.148;17.128;2023-04-25T01:07:38;1.98;;;1.77;;
24739;SDS011;45234;48.148;17.128;2023-04-25T01:10:07;1.85;;;1.75;;
24739;SDS011;45234;48.148;17.128;2023-04-25T01:12:36;3.10;;;1.95;;
24739;SDS011;45234;48.148;17.128;2023-04-25T01:15:03;3.20;;;2.30;;
24739;SDS011;45234;48.148;17.128;2023-04-25T01:17:31;4.70;;;2.22;;
24739;SDS011;45234;48.148;17.128;2023-04-25T01:20:03;4.88;;;2.28;;
24739;SDS011;45234;48.148;17.128;2023-04-25T01:22:31;2.40;;;2.00;;
24739;SDS011;45234;48.148;17.128;2023-04-25T01:24:59;2.10;;;1.77;;
24739;SDS011;45234;48.148;17.128;2023-04-25T01:27:28;2.63;;;1.92;;
24739;SDS011;45234;48.148;17.128;2023-04-25T01:29:56;3.40;;;2.50;;
24739;SDS011;45234;48.148;17.128;2023-04-25T01:32:31;2.78;;;2.13;;
24739;SDS011;45234;48.148;17.128;2023-04-25T01:35:06;2.42;;;2.00;;
24739;SDS011;45234;48.148;17.128;2023-04-25T01:37:42;2.75;;;2.08;;
24739;SDS011;45234;48.148;17.128;2023-04-25T01:40:11;3.13;;;2.17;;
24739;SDS011;45234;48.148;17.128;2023-04-25T01:42:39;5.80;;;2.28;;
24739;SDS011;45234;48.148;17.128;2023-04-25T01:45:08;2.60;;;2.20;;
24739;SDS011;45234;48.148;17.128;2023-04-25T01:47:36;2.83;;;2.28;;
24739;SDS011;45234;48.148;17.128;2023-04-25T01:50:06;2.58;;;2.03;;
24739;SDS011;45234;48.148;17.128;2023-04-25T01:52:35;3.65;;;2.28;;
24739;SDS011;45234;48.148;17.128;2023-04-25T01:55:05;4.70;;;2.45;;
24739;SDS011;45234;48.148;17.128;2023-04-25T01:57:35;3.15;;;1.90;;
24739;SDS011;45234;48.148;17.128;2023-04-25T02:00:04;2.78;;;2.15;;
24739;SDS011;45234;48.148;17.128;2023-04-25T02:02:39;3.08;;;2.42;;
24739;SDS011;45234;48.148;17.128;2023-04-25T02:05:27;4.18;;;2.53;;
24739;SDS011;45234;48.148;17.128;2023-04-25T02:07:55;3.47;;;2.30;;
24739;SDS011;45234;48.148;17.128;2023-04-25T02:10:24;2.53;;;2.33;;
24739;SDS011;45234;48.148;17.128;2023-04-25T02:13:05;3.10;;;2.38;;
24739;SDS011;45234;48.148;17.128;2023-04-25T02:16:03;3.05;;;2.10;;
24739;SDS011;45234;48.148;17.128;2023-04-25T02:18:31;2.20;;;2.00;;
24739;SDS011;45234;48.148;17.128;2023-04-25T02:20:59;2.85;;;1.92;;
24739;SDS011;45234;48.148;17.128;2023-04-25T02:23:27;2.60;;;2.35;;
24739;SDS011;45234;48.148;17.128;2023-04-25T02:25:55;2.58;;;1.92;;
24739;SDS011;45234;48.148;17.128;2023-04-25T02:28:23;2.20;;;1.90;;
24739;SDS011;45234;48.148;17.128;2023-04-25T02:30:51;3.63;;;2.80;;
24739;SDS011;45234;48.148;17.128;2023-04-25T02:33:19;4.25;;;2.42;;
24739;SDS011;45234;48.148;17.128;2023-04-25T02:35:47;3.30;;;2.35;;
24739;SDS011;45234;48.148;17.128;2023-04-25T02:38:14;4.80;;;2.35;;
24739;SDS011;45234;48.148;17.128;2023-04-25T02:40:42;4.28;;;2.40;;
24739;SDS011;45234;48.148;17.128;2023-04-25T02:43:09;4.22;;;2.20;;
24739;SDS011;45234;48.148;17.128;2023-04-25T02:45:36;3.28;;;2.33;;
24739;SDS011;45234;48.148;17.128;2023-04-25T02:48:04;3.45;;;2.17;;
24739;SDS011;45234;48.148;17.128;2023-04-25T02:50:32;2.65;;;2.30;;
24739;SDS011;45234;48.148;17.128;2023-04-25T02:52:59;2.95;;;2.47;;
24739;SDS011;45234;48.148;17.128;2023-04-25T02:55:33;3.65;;;2.00;;
24739;SDS011;45234;48.148;17.128;2023-04-25T02:58:01;5.00;;;2.50;;
24739;SDS011;45234;48.148;17.128;2023-04-25T03:00:44;4.75;;;2.70;;
24739;SDS011;45234;48.148;17.128;2023-04-25T03:03:11;3.10;;;2.28;;
24739;SDS011;45234;48.148;17.128;2023-04-25T03:05:39;3.40;;;2.13;;
24739;SDS011;45234;48.148;17.128;2023-04-25T03:08:07;4.68;;;2.63;;
24739;SDS011;45234;48.148;17.128;2023-04-25T03:10:38;2.28;;;1.77;;
24739;SDS011;45234;48.148;17.128;2023-04-25T03:13:07;2.78;;;2.13;;
24739;SDS011;45234;48.148;17.128;2023-04-25T03:15:35;2.92;;;2.30;;
24739;SDS011;45234;48.148;17.128;2023-04-25T03:18:03;3.28;;;2.20;;
24739;SDS011;45234;48.148;17.128;2023-04-25T03:20:30;2.38;;;1.92;;
24739;SDS011;45234;48.148;17.128;2023-04-25T03:22:57;2.78;;;2.15;;
24739;SDS011;45234;48.148;17.128;2023-04-25T03:25:25;3.80;;;2.20;;
24739;SDS011;45234;48.148;17.128;2023-04-25T03:27:52;3.35;;;2.25;;
24739;SDS011;45234;48.148;17.128;2023-04-25T03:30:21;3.80;;;2.15;;
24739;SDS011;45234;48.148;17.128;2023-04-25T03:32:48;2.92;;;2.20;;
24739;SDS011;45234;48.148;17.128;2023-04-25T03:35:16;2.90;;;2.33;;
24739;SDS011;45234;48.148;17.128;2023-04-25T03:37:43;5.90;;;2.20;;
24739;SDS011;45234;48.148;17.128;2023-04-25T03:40:16;3.00;;;2.42;;
24739;SDS011;45234;48.148;17.128;2023-04-25T03:43:02;4.80;;;2.20;;
24739;SDS011;45234;48.148;17.128;2023-04-25T03:45:28;5.90;;;2.55;;
24739;SDS011;45234;48.148;17.128;2023-04-25T03:47:56;3.85;;;2.22;;
24739;SDS011;45234;48.148;17.128;2023-04-25T03:50:25;4.13;;;2.35;;
24739;SDS011;45234;48.148;17.128;2023-04-25T03:52:52;4.60;;;2.20;;
24739;SDS011;45234;48.148;17.128;2023-04-25T03:55:20;3.03;;;2.42;;
24739;SDS011;45234;48.148;17.128;2023-04-25T03:57:47;5.35;;;2.20;;
24739;SDS011;45234;48.148;17.128;2023-04-25T04:00:15;3.67;;;2.72;;
24739;SDS011;45234;48.148;17.128;2023-04-25T04:02:42;5.53;;;2.70;;
24739;SDS011;45234;48.148;17.128;2023-04-25T04:05:11;2.83;;;2.20;;
24739;SDS011;45234;48.148;17.128;2023-04-25T04:07:46;6.97;;;2.60;;
24739;SDS011;45234;48.148;17.128;2023-04-25T04:10:16;6.85;;;2.47;;
24739;SDS011;45234;48.148;17.128;2023-04-25T04:12:44;3.65;;;2.35;;
24739;SDS011;45234;48.148;17.128;2023-04-25T04:15:11;3.75;;;2.83;;
24739;SDS011;45234;48.148;17.128;2023-04-25T04:17:43;3.17;;;2.47;;
24739;SDS011;45234;48.148;17.128;2023-04-25T04:20:10;4.43;;;2.20;;
24739;SDS011;45234;48.148;17.128;2023-04-25T04:22:39;3.60;;;2.40;;
24739;SDS011;45234;48.148;17.128;2023-04-25T04:25:09;3.97;;;2.88;;
24739;SDS011;45234;48.148;17.128;2023-04-25T04:28:01;3.35;;;2.58;;
24739;SDS011;45234;48.148;17.128;2023-04-25T04:30:47;4.00;;;3.08;;
24739;SDS011;45234;48.148;17.128;2023-04-25T04:33:17;5.63;;;2.72;;
24739;SDS011;45234;48.148;17.128;2023-04-25T04:35:50;4.70;;;2.88;;
24739;SDS011;45234;48.148;17.128;2023-04-25T04:38:18;3.95;;;2.95;;
24739;SDS011;45234;48.148;17.128;2023-04-25T04:40:45;4.95;;;3.15;;
24739;SDS011;45234;48.148;17.128;2023-04-25T04:43:31;2.72;;;2.40;;
24739;SDS011;45234;48.148;17.128;2023-04-25T04:46:19;4.53;;;3.20;;
24739;SDS011;45234;48.148;17.128;2023-04-25T04:49:10;4.65;;;2.45;;
24739;SDS011;45234;48.148;17.128;2023-04-25T04:51:53;5.32;;;2.90;;
24739;SDS011;45234;48.148;17.128;2023-04-25T04:54:37;6.50;;;2.53;;
24739;SDS011;45234;48.148;17.128;2023-04-25T04:57:31;3.90;;;2.72;;
24739;SDS011;45234;48.148;17.128;2023-04-25T05:00:22;3.53;;;2.30;;
24739;SDS011;45234;48.148;17.128;2023-04-25T05:03:09;4.07;;;2.65;;
24739;SDS011;45234;48.148;17.128;2023-04-25T05:05:47;5.30;;;2.80;;
24739;SDS011;45234;48.148;17.128;2023-04-25T05:08:33;4.50;;;2.50;;
24739;SDS011;45234;48.148;17.128;2023-04-25T05:11:09;5.03;;;2.72;;
24739;SDS011;45234;48.148;17.128;2023-04-25T05:13:47;3.78;;;2.72;;
24739;SDS011;45234;48.148;17.128;2023-04-25T05:16:34;5.95;;;2.90;;
24739;SDS011;45234;48.148;17.128;2023-04-25T05:19:40;4.72;;;2.60;;
24739;SDS011;45234;48.148;17.128;2023-04-25T05:22:25;3.60;;;2.47;;
24739;SDS011;45234;48.148;17.128;2023-04-25T05:25:15;2.88;;;2.40;;
24739;SDS011;45234;48.148;17.128;2023-04-25T05:28:14;3.78;;;2.63;;
24739;SDS011;45234;48.148;17.128;2023-04-25T05:31:06;4.28;;;3.17;;
24739;SDS011;45234;48.148;17.128;2023-04-25T05:33:58;5.00;;;2.72;;
24739;SDS011;45234;48.148;17.128;2023-04-25T05:36:37;3.38;;;2.85;;
24739;SDS011;45234;48.148;17.128;2023-04-25T05:39:04;3.67;;;2.75;;
24739;SDS011;45234;48.148;17.128;2023-04-25T05:42:01;5.82;;;2.92;;
24739;SDS011;45234;48.148;17.128;2023-04-25T05:44:57;3.78;;;2.80;;
24739;SDS011;45234;48.148;17.128;2023-04-25T05:48:00;3.92;;;3.25;;
24739;SDS011;45234;48.148;17.128;2023-04-25T05:50:54;4.07;;;2.78;;
24739;SDS011;45234;48.148;17.128;2023-04-25T05:53:45;6.72;;;3.00;;
24739;SDS011;45234;48.148;17.128;2023-04-25T05:56:20;5.15;;;3.70;;
24739;SDS011;45234;48.148;17.128;2023-04-25T05:58:52;4.80;;;2.80;;
24739;SDS011;45234;48.148;17.128;2023-04-25T06:01:19;3.45;;;2.65;;
24739;SDS011;45234;48.148;17.128;2023-04-25T06:03:47;4.00;;;3.20;;
24739;SDS011;45234;48.148;17.128;2023-04-25T06:06:19;4.55;;;2.90;;
24739;SDS011;45234;48.148;17.128;2023-04-25T06:08:48;4.18;;;3.03;;
24739;SDS011;45234;48.148;17.128;2023-04-25T06:11:15;3.38;;;2.83;;
24739;SDS011;45234;48.148;17.128;2023-04-25T06:13:42;5.32;;;3.00;;
24739;SDS011;45234;48.148;17.128;2023-04-25T06:16:10;5.07;;;2.88;;
24739;SDS011;45234;48.148;17.128;2023-04-25T06:18:37;5.72;;;3.13;;
24739;SDS011;45234;48.148;17.128;2023-04-25T06:21:04;3.45;;;3.00;;
24739;SDS011;45234;48.148;17.128;2023-04-25T06:23:31;3.45;;;2.80;;
24739;SDS011;45234;48.148;17.128;2023-04-25T06:26:02;6.28;;;3.05;;
24739;SDS011;45234;48.148;17.128;2023-04-25T06:28:31;4.32;;;2.60;;
24739;SDS011;45234;48.148;17.128;2023-04-25T06:30:58;4.78;;;3.03;;
24739;SDS011;45234;48.148;17.128;2023-04-25T06:33:28;3.80;;;3.00;;
24739;SDS011;45234;48.148;17.128;2023-04-25T06:35:55;4.78;;;2.95;;
24739;SDS011;45234;48.148;17.128;2023-04-25T06:38:25;4.15;;;3.13;;
24739;SDS011;45234;48.148;17.128;2023-04-25T06:40:54;7.63;;;3.50;;
24739;SDS011;45234;48.148;17.128;2023-04-25T06:43:21;4.43;;;2.72;;
24739;SDS011;45234;48.148;17.128;2023-04-25T06:45:51;5.47;;;3.55;;
24739;SDS011;45234;48.148;17.128;2023-04-25T06:48:20;3.60;;;3.15;;
24739;SDS011;45234;48.148;17.128;2023-04-25T06:50:50;3.67;;;3.13;;
24739;SDS011;45234;48.148;17.128;2023-04-25T06:53:22;3.80;;;2.97;;
24739;SDS011;45234;48.148;17.128;2023-04-25T06:55:56;3.45;;;3.15;;
24739;SDS011;45234;48.148;17.128;2023-04-25T06:58:28;3.78;;;2.92;;
24739;SDS011;45234;48.148;17.128;2023-04-25T07:00:55;5.35;;;3.60;;
24739;SDS011;45234;48.148;17.128;2023-04-25T07:03:24;3.85;;;3.45;;
24739;SDS011;45234;48.148;17.128;2023-04-25T07:05:57;3.95;;;3.17;;
24739;SDS011;45234;48.148;17.128;2023-04-25T07:08:24;4.55;;;3.72;;
24739;SDS011;45234;48.148;17.128;2023-04-25T07:10:50;7.63;;;3.50;;
24739;SDS011;45234;48.148;17.128;2023-04-25T07:13:17;4.30;;;3.60;;
24739;SDS011;45234;48.148;17.128;2023-04-25T07:15:44;4.65;;;3.67;;
24739;SDS011;45234;48.148;17.128;2023-04-25T07:18:15;5.10;;;3.55;;
24739;SDS011;45234;48.148;17.128;2023-04-25T07:20:42;4.28;;;3.22;;
24739;SDS011;45234;48.148;17.128;2023-04-25T07:23:09;5.85;;;3.72;;
24739;SDS011;45234;48.148;17.128;2023-04-25T07:25:37;6.00;;;3.40;;
24739;SDS011;45234;48.148;17.128;2023-04-25T07:28:05;8.88;;;4.07;;
24739;SDS011;45234;48.148;17.128;2023-04-25T07:30:31;7.75;;;4.13;;
24739;SDS011;45234;48.148;17.128;2023-04-25T07:33:03;9.25;;;3.67;;
24739;SDS011;45234;48.148;17.128;2023-04-25T07:35:30;4.75;;;3.70;;
24739;SDS011;45234;48.148;17.128;2023-04-25T07:37:57;6.82;;;3.42;;
24739;SDS011;45234;48.148;17.128;2023-04-25T07:40:24;4.47;;;3.80;;
24739;SDS011;45234;48.148;17.128;2023-04-25T07:42:57;8.40;;;3.93;;
24739;SDS011;45234;48.148;17.128;2023-04-25T07:45:31;3.97;;;3.13;;
24739;SDS011;45234;48.148;17.128;2023-04-25T07:47:59;4.70;;;4.03;;
24739;SDS011;45234;48.148;17.128;2023-04-25T07:50:28;4.50;;;3.38;;
24739;SDS011;45234;48.148;17.128;2023-04-25T07:52:56;4.90;;;3.40;;
24739;SDS011;45234;48.148;17.128;2023-04-25T07:55:29;4.57;;;4.00;;
24739;SDS011;45234;48.148;17.128;2023-04-25T07:58:08;5.32;;;3.80;;
24739;SDS011;45234;48.148;17.128;2023-04-25T08:00:39;5.20;;;3.85;;
24739;SDS011;45234;48.148;17.128;2023-04-25T08:03:27;5.85;;;3.53;;
24739;SDS011;45234;48.148;17.128;2023-04-25T08:05:56;3.90;;;3.30;;
24739;SDS011;45234;48.148;17.128;2023-04-25T08:08:26;5.45;;;4.15;;
24739;SDS011;45234;48.148;17.128;2023-04-25T08:10:54;4.75;;;3.97;;
24739;SDS011;45234;48.148;17.128;2023-04-25T08:13:21;4.15;;;3.63;;
24739;SDS011;45234;48.148;17.128;2023-04-25T08:15:51;4.68;;;4.13;;
24739;SDS011;45234;48.148;17.128;2023-04-25T08:18:18;3.50;;;3.20;;
24739;SDS011;45234;48.148;17.128;2023-04-25T08:20:47;5.90;;;3.67;;
24739;SDS011;45234;48.148;17.128;2023-04-25T08:23:14;3.80;;;3.40;;
24739;SDS011;45234;48.148;17.128;2023-04-25T08:25:59;5.18;;;3.78;;
24739;SDS011;45234;48.148;17.128;2023-04-25T08:28:27;4.28;;;3.25;;
24739;SDS011;45234;48.148;17.128;2023-04-25T08:30:57;4.60;;;3.78;;
24739;SDS011;45234;48.148;17.128;2023-04-25T08:33:31;4.72;;;3.03;;
24739;SDS011;45234;48.148;17.128;2023-04-25T08:36:27;5.25;;;3.13;;
24739;SDS011;45234;48.148;17.128;2023-04-25T08:38:59;5.65;;;3.28;;
24739;SDS011;45234;48.148;17.128;2023-04-25T08:41:27;5.45;;;3.85;;
24739;SDS011;45234;48.148;17.128;2023-04-25T08:43:54;5.13;;;3.78;;
24739;SDS011;45234;48.148;17.128;2023-04-25T08:46:25;7.03;;;3.92;;
24739;SDS011;45234;48.148;17.128;2023-04-25T08:49:20;3.55;;;3.03;;
24739;SDS011;45234;48.148;17.128;2023-04-25T08:51:48;7.80;;;3.80;;
24739;SDS011;45234;48.148;17.128;2023-04-25T08:54:20;5.07;;;3.67;;
24739;SDS011;45234;48.148;17.128;2023-04-25T08:57:02;5.55;;;3.17;;
24739;SDS011;45234;48.148;17.128;2023-04-25T08:59:30;4.50;;;4.00;;
24739;SDS011;45234;48.148;17.128;2023-04-25T09:01:59;5.80;;;4.00;;
24739;SDS011;45234;48.148;17.128;2023-04-25T09:04:31;4.60;;;3.63;;
24739;SDS011;45234;48.148;17.128;2023-04-25T09:07:01;4.55;;;3.58;;
24739;SDS011;45234;48.148;17.128;2023-04-25T09:09:29;4.57;;;3.90;;
24739;SDS011;45234;48.148;17.128;2023-04-25T09:11:56;6.45;;;4.03;;
24739;SDS011;45234;48.148;17.128;2023-04-25T09:14:25;6.45;;;4.00;;
24739;SDS011;45234;48.148;17.128;2023-04-25T09:17:08;4.32;;;3.80;;
24739;SDS011;45234;48.148;17.128;2023-04-25T09:19:39;6.32;;;4.30;;
24739;SDS011;45234;48.148;17.128;2023-04-25T09:22:21;5.88;;;4.20;;
24739;SDS011;45234;48.148;17.128;2023-04-25T09:24:49;4.95;;;3.78;;
24739;SDS011;45234;48.148;17.128;2023-04-25T09:27:20;4.95;;;3.65;;
24739;SDS011;45234;48.148;17.128;2023-04-25T09:30:00;5.78;;;3.92;;
24739;SDS011;45234;48.148;17.128;2023-04-25T09:32:57;5.22;;;3.63;;
24739;SDS011;45234;48.148;17.128;2023-04-25T09:35:38;5.80;;;4.43;;
24739;SDS011;45234;48.148;17.128;2023-04-25T09:38:12;5.15;;;4.13;;
24739;SDS011;45234;48.148;17.128;2023-04-25T09:40:59;9.68;;;4.05;;
24739;SDS011;45234;48.148;17.128;2023-04-25T09:43:44;3.85;;;3.40;;
24739;SDS011;45234;48.148;17.128;2023-04-25T09:46:13;5.18;;;3.92;;
24739;SDS011;45234;48.148;17.128;2023-04-25T09:48:49;5.65;;;3.70;;
24739;SDS011;45234;48.148;17.128;2023-04-25T09:51:24;6.93;;;3.97;;
24739;SDS011;45234;48.148;17.128;2023-04-25T09:53:56;6.43;;;3.45;;
24739;SDS011;45234;48.148;17.128;2023-04-25T09:56:43;6.45;;;3.22;;
24739;SDS011;45234;48.148;17.128;2023-04-25T09:59:13;4.65;;;3.10;;
24739;SDS011;45234;48.148;17.128;2023-04-25T10:01:41;4.10;;;3.05;;
24739;SDS011;45234;48.148;17.128;2023-04-25T10:04:21;6.43;;;3.92;;
24739;SDS011;45234;48.148;17.128;2023-04-25T10:06:59;4.50;;;3.73;;
24739;SDS011;45234;48.148;17.128;2023-04-25T10:09:27;5.60;;;3.22;;
24739;SDS011;45234;48.148;17.128;2023-04-25T10:11:59;5.10;;;4.10;;
24739;SDS011;45234;48.148;17.128;2023-04-25T10:14:30;4.60;;;3.75;;
24739;SDS011;45234;48.148;17.128;2023-04-25T10:16:57;4.82;;;3.75;;
24739;SDS011;45234;48.148;17.128;2023-04-25T10:19:25;6.53;;;3.53;;
24739;SDS011;45234;48.148;17.128;2023-04-25T10:21:58;4.63;;;3.50;;
24739;SDS011;45234;48.148;17.128;2023-04-25T10:24:37;4.15;;;2.45;;
24739;SDS011;45234;48.148;17.128;2023-04-25T10:27:05;5.93;;;3.20;;
24739;SDS011;45234;48.148;17.128;2023-04-25T10:29:33;3.40;;;3.10;;
24739;SDS011;45234;48.148;17.128;2023-04-25T10:32:01;5.63;;;3.35;;
24739;SDS011;45234;48.148;17.128;2023-04-25T10:34:44;5.68;;;2.97;;
24739;SDS011;45234;48.148;17.128;2023-04-25T10:37:14;4.68;;;2.80;;
24739;SDS011;45234;48.148;17.128;2023-04-25T10:39:41;4.95;;;3.17;;
24739;SDS011;45234;48.148;17.128;2023-04-25T10:42:09;3.75;;;2.55;;
24739;SDS011;45234;48.148;17.128;2023-04-25T10:44:37;4.40;;;3.17;;
24739;SDS011;45234;48.148;17.128;2023-04-25T10:47:06;4.65;;;2.70;;
24739;SDS011;45234;48.148;17.128;2023-04-25T10:49:36;3.58;;;2.45;;
24739;SDS011;45234;48.148;17.128;2023-04-25T10:52:13;4.93;;;3.08;;
24739;SDS011;45234;48.148;17.128;2023-04-25T10:54:52;3.65;;;2.92;;
24739;SDS011;45234;48.148;17.128;2023-04-25T10:57:31;3.97;;;3.58;;
24739;SDS011;45234;48.148;17.128;2023-04-25T11:02:45;4.13;;;3.20;;
24739;SDS011;45234;48.148;17.128;2023-04-25T11:08:22;3.45;;;2.90;;
24739;SDS011;45234;48.148;17.128;2023-04-25T11:11:02;4.95;;;3.50;;
24739;SDS011;45234;48.148;17.128;2023-04-25T11:13:30;4.50;;;3.25;;
24739;SDS011;45234;48.148;17.128;2023-04-25T11:15:57;5.40;;;3.88;;
24739;SDS011;45234;48.148;17.128;2023-04-25T11:18:40;6.32;;;3.67;;
24739;SDS011;45234;48.148;17.128;2023-04-25T11:21:10;4.60;;;2.85;;
24739;SDS011;45234;48.148;17.128;2023-04-25T11:23:37;6.05;;;3.40;;
24739;SDS011;45234;48.148;17.128;2023-04-25T11:26:05;3.63;;;3.17;;
24739;SDS011;45234;48.148;17.128;2023-04-25T11:28:31;4.18;;;3.03;;
24739;SDS011;45234;48.148;17.128;2023-04-25T11:30:59;4.75;;;2.55;;
24739;SDS011;45234;48.148;17.128;2023-04-25T11:33:25;5.28;;;2.95;;
24739;SDS011;45234;48.148;17.128;2023-04-25T11:35:53;3.97;;;2.30;;
24739;SDS011;45234;48.148;17.128;2023-04-25T11:38:25;4.43;;;2.63;;
24739;SDS011;45234;48.148;17.128;2023-04-25T11:40:54;3.60;;;2.50;;
24739;SDS011;45234;48.148;17.128;2023-04-25T11:43:21;2.65;;;2.20;;
24739;SDS011;45234;48.148;17.128;2023-04-25T11:45:51;3.53;;;2.28;;
24739;SDS011;45234;48.148;17.128;2023-04-25T11:48:18;4.30;;;2.15;;
24739;SDS011;45234;48.148;17.128;2023-04-25T11:50:51;2.55;;;1.70;;
24739;SDS011;45234;48.148;17.128;2023-04-25T11:53:19;5.80;;;1.92;;
24739;SDS011;45234;48.148;17.128;2023-04-25T11:55:46;3.22;;;2.47;;
24739;SDS011;45234;48.148;17.128;2023-04-25T11:58:14;4.75;;;2.70;;
24739;SDS011;45234;48.148;17.128;2023-04-25T12:00:41;3.17;;;2.33;;
24739;SDS011;45234;48.148;17.128;2023-04-25T12:03:15;6.43;;;2.75;;
24739;SDS011;45234;48.148;17.128;2023-04-25T12:05:44;4.00;;;2.70;;
24739;SDS011;45234;48.148;17.128;2023-04-25T12:08:12;3.40;;;2.88;;
24739;SDS011;45234;48.148;17.128;2023-04-25T12:10:41;2.67;;;2.22;;
24739;SDS011;45234;48.148;17.128;2023-04-25T12:13:22;3.03;;;1.60;;
24739;SDS011;45234;48.148;17.128;2023-04-25T12:15:51;2.35;;;1.60;;
24739;SDS011;45234;48.148;17.128;2023-04-25T12:18:22;4.50;;;1.85;;
24739;SDS011;45234;48.148;17.128;2023-04-25T12:20:52;2.65;;;2.15;;
24739;SDS011;45234;48.148;17.128;2023-04-25T12:23:28;4.38;;;2.45;;
24739;SDS011;45234;48.148;17.128;2023-04-25T12:25:56;3.70;;;2.58;;
24739;SDS011;45234;48.148;17.128;2023-04-25T12:28:24;4.80;;;3.35;;
24739;SDS011;45234;48.148;17.128;2023-04-25T12:33:32;5.38;;;4.15;;
24739;SDS011;45234;48.148;17.128;2023-04-25T12:36:01;6.35;;;2.58;;
24739;SDS011;45234;48.148;17.128;2023-04-25T12:38:40;4.28;;;2.90;;
24739;SDS011;45234;48.148;17.128;2023-04-25T12:41:08;3.75;;;3.10;;
24739;SDS011;45234;48.148;17.128;2023-04-25T12:43:35;6.63;;;2.97;;
24739;SDS011;45234;48.148;17.128;2023-04-25T12:46:02;6.85;;;2.88;;
24739;SDS011;45234;48.148;17.128;2023-04-25T12:48:29;2.70;;;2.38;;
24739;SDS011;45234;48.148;17.128;2023-04-25T12:50:56;3.70;;;2.33;;
24739;SDS011;45234;48.148;17.128;2023-04-25T12:53:23;2.60;;;2.13;;
24739;SDS011;45234;48.148;17.128;2023-04-25T12:55:50;2.10;;;1.90;;
24739;SDS011;45234;48.148;17.128;2023-04-25T12:58:18;2.13;;;1.75;;
24739;SDS011;45234;48.148;17.128;2023-04-25T13:00:45;2.00;;;1.80;;
24739;SDS011;45234;48.148;17.128;2023-04-25T13:03:13;2.90;;;1.83;;
24739;SDS011;45234;48.148;17.128;2023-04-25T13:05:41;2.75;;;1.80;;
24739;SDS011;45234;48.148;17.128;2023-04-25T13:08:08;2.45;;;1.98;;
24739;SDS011;45234;48.148;17.128;2023-04-25T13:10:35;8.20;;;1.83;;
24739;SDS011;45234;48.148;17.128;2023-04-25T13:13:05;1.40;;;1.30;;
24739;SDS011;45234;48.148;17.128;2023-04-25T13:15:32;9.98;;;2.15;;
24739;SDS011;45234;48.148;17.128;2023-04-25T13:17:59;8.82;;;1.92;;
24739;SDS011;45234;48.148;17.128;2023-04-25T13:20:26;11.75;;;2.00;;
24739;SDS011;45234;48.148;17.128;2023-04-25T13:22:53;5.57;;;1.48;;
24739;SDS011;45234;48.148;17.128;2023-04-25T13:25:20;3.30;;;1.52;;
24739;SDS011;45234;48.148;17.128;2023-04-25T13:27:47;2.42;;;1.38;;
24739;SDS011;45234;48.148;17.128;2023-04-25T13:30:15;2.30;;;1.88;;
24739;SDS011;45234;48.148;17.128;2023-04-25T13:32:41;11.45;;;2.30;;
24739;SDS011;45234;48.148;17.128;2023-04-25T13:35:12;8.85;;;1.98;;
24739;SDS011;45234;48.148;17.128;2023-04-25T13:37:39;8.70;;;1.70;;
24739;SDS011;45234;48.148;17.128;2023-04-25T13:40:08;7.90;;;2.38;;
24739;SDS011;45234;48.148;17.128;2023-04-25T13:42:37;7.32;;;1.80;;
24739;SDS011;45234;48.148;17.128;2023-04-25T13:45:05;1.92;;;1.60;;
24739;SDS011;45234;48.148;17.128;2023-04-25T13:47:33;3.17;;;2.00;;
24739;SDS011;45234;48.148;17.128;2023-04-25T13:50:01;3.10;;;2.13;;
24739;SDS011;45234;48.148;17.128;2023-04-25T13:52:31;6.15;;;2.13;;
24739;SDS011;45234;48.148;17.128;2023-04-25T13:54:58;2.15;;;1.35;;
24739;SDS011;45234;48.148;17.128;2023-04-25T13:57:25;1.20;;;1.00;;
24739;SDS011;45234;48.148;17.128;2023-04-25T13:59:52;4.78;;;1.35;;
24739;SDS011;45234;48.148;17.128;2023-04-25T14:02:19;2.45;;;1.27;;
24739;SDS011;45234;48.148;17.128;2023-04-25T14:04:46;2.30;;;1.30;;
24739;SDS011;45234;48.148;17.128;2023-04-25T14:07:14;4.97;;;1.50;;
24739;SDS011;45234;48.148;17.128;2023-04-25T14:09:50;13.80;;;1.33;;
24739;SDS011;45234;48.148;17.128;2023-04-25T14:12:17;3.03;;;1.05;;
24739;SDS011;45234;48.148;17.128;2023-04-25T14:14:43;1.15;;;1.00;;
24739;SDS011;45234;48.148;17.128;2023-04-25T14:17:11;1.35;;;1.20;;
24739;SDS011;45234;48.148;17.128;2023-04-25T14:19:38;3.00;;;1.42;;
24739;SDS011;45234;48.148;17.128;2023-04-25T14:22:09;1.58;;;1.40;;
24739;SDS011;45234;48.148;17.128;2023-04-25T14:24:36;2.10;;;1.48;;
24739;SDS011;45234;48.148;17.128;2023-04-25T14:27:04;3.80;;;1.40;;
24739;SDS011;45234;48.148;17.128;2023-04-25T14:29:31;2.00;;;1.45;;
24739;SDS011;45234;48.148;17.128;2023-04-25T14:31:58;2.33;;;1.60;;
24739;SDS011;45234;48.148;17.128;2023-04-25T14:34:26;2.47;;;1.65;;
24739;SDS011;45234;48.148;17.128;2023-04-25T14:36:53;1.58;;;1.33;;
24739;SDS011;45234;48.148;17.128;2023-04-25T14:39:20;2.47;;;1.73;;
24739;SDS011;45234;48.148;17.128;2023-04-25T14:41:47;2.50;;;1.45;;
24739;SDS011;45234;48.148;17.128;2023-04-25T14:44:14;3.45;;;1.38;;
24739;SDS011;45234;48.148;17.128;2023-04-25T14:46:41;2.50;;;1.52;;
24739;SDS011;45234;48.148;17.128;2023-04-25T14:49:08;4.40;;;1.10;;
24739;SDS011;45234;48.148;17.128;2023-04-25T14:51:35;2.58;;;1.30;;
24739;SDS011;45234;48.148;17.128;2023-04-25T14:54:02;1.48;;;1.25;;
24739;SDS011;45234;48.148;17.128;2023-04-25T14:56:29;1.40;;;1.17;;
24739;SDS011;45234;48.148;17.128;2023-04-25T14:58:59;1.15;;;0.95;;
24739;SDS011;45234;48.148;17.128;2023-04-25T15:01:26;2.47;;;1.10;;
24739;SDS011;45234;48.148;17.128;2023-04-25T15:03:53;1.33;;;1.10;;
24739;SDS011;45234;48.148;17.128;2023-04-25T15:06:21;1.58;;;1.20;;